| Date | Time | Temp. (oF) | Dew Point (oF) | Rel. Hum. (%) | Press. (in.) | Wind Dir. | Wind Speed (mph) | Hourly Rainfall (in.) |
|
|---|---|---|---|---|---|---|---|---|---|
| 1 | 07/07 | 00:00 | 79 | 71 | 79 | 29.98 | W | 0 | 0.00 |
| 2 | 07/06 | 23:00 | 81 | 69 | 68 | 29.98 | W | 0 | 0.00 |
| 3 | 07/06 | 22:00 | 85 | 67 | 57 | 29.98 | WNW | 1 | 0.00 |
| 4 | 07/06 | 21:00 | 89 | 67 | 49 | 29.96 | SW | 2 | 0.00 |
| 5 | 07/06 | 20:00 | 93 | 66 | 42 | 29.95 | SW | 1 | 0.00 |
| 6 | 07/06 | 19:00 | 97 | 63 | 34 | 29.94 | SW | 4 | 0.00 |
| 7 | 07/06 | 18:00 | 98 | 62 | 32 | 29.94 | WSW | 4 | 0.00 |
| 8 | 07/06 | 17:00 | 99 | 63 | 32 | 29.96 | W | 4 | 0.00 |
| 9 | 07/06 | 16:00 | 100 | 63 | 31 | 29.98 | W | 4 | 0.00 |
| 10 | 07/06 | 15:00 | 100 | 59 | 27 | 29.99 | SSE | 2 | 0.00 |
| 11 | 07/06 | 14:00 | 99 | 61 | 30 | 30.00 | WSW | 7 | 0.00 |
| 12 | 07/06 | 13:00 | 97 | 62 | 33 | 30.01 | NNW | 2 | 0.00 |
| 13 | 07/06 | 12:00 | 96 | 69 | 43 | 30.03 | SW | 6 | 0.00 |
| 14 | 07/06 | 11:00 | 93 | 72 | 51 | 30.04 | NNW | 3 | 0.00 |
| 15 | 07/06 | 10:00 | 90 | 70 | 54 | 30.04 | WNW | 5 | 0.00 |
| 16 | 07/06 | 09:00 | 85 | 72 | 67 | 30.04 | NNW | 1 | 0.00 |
| 17 | 07/06 | 08:00 | 75 | 73 | 94 | 30.04 | SSW | 0 | 0.00 |
| 18 | 07/06 | 07:00 | 70 | 69 | 97 | 30.04 | SW | 0 | 0.00 |
| 19 | 07/06 | 06:00 | 70 | 69 | 97 | 30.02 | SW | 0 | 0.00 |
| 20 | 07/06 | 05:00 | 70 | 68 | 96 | 30.01 | SW | 0 | 0.00 |
| 21 | 07/06 | 04:00 | 71 | 69 | 94 | 30.00 | SW | 0 | 0.00 |
| 22 | 07/06 | 03:00 | 72 | 69 | 92 | 30.00 | SW | 0 | 0.00 |
| 23 | 07/06 | 02:00 | 74 | 70 | 88 | 30.00 | SW | 0 | 0.00 |
| 24 | 07/06 | 01:00 | 76 | 70 | 83 | 30.00 | SW | 0 | 0.00 |